createdAt,value
2022-09-16T00:00:35.781Z,1.93
2022-09-16T00:03:04.238Z,1.73
2022-09-16T00:05:31.820Z,1.30
2022-09-16T00:07:59.456Z,1.53
2022-09-16T00:10:28.689Z,1.63
2022-09-16T00:12:56.315Z,1.40
2022-09-16T00:15:23.984Z,1.30
2022-09-16T00:17:51.685Z,1.90
2022-09-16T00:20:19.417Z,1.47
2022-09-16T00:22:46.983Z,1.50
2022-09-16T00:25:14.597Z,1.67
2022-09-16T00:27:43.531Z,1.67
2022-09-16T00:30:11.998Z,1.37
2022-09-16T00:32:39.597Z,1.13
2022-09-16T00:35:08.322Z,1.30
2022-09-16T00:37:36.024Z,1.50
2022-09-16T00:40:04.044Z,1.63
2022-09-16T00:42:31.683Z,1.40
2022-09-16T00:45:03.341Z,1.40
2022-09-16T00:47:35.567Z,2.30
2022-09-16T00:50:09.229Z,1.70
2022-09-16T00:52:37.378Z,1.60
2022-09-16T00:55:09.452Z,1.50
2022-09-16T00:57:39.242Z,1.77
2022-09-16T01:00:10.787Z,1.47
2022-09-16T01:02:38.832Z,1.50
2022-09-16T01:05:09.151Z,1.60
2022-09-16T01:07:43.097Z,1.47
2022-09-16T01:10:11.358Z,1.33
2022-09-16T01:12:40.050Z,1.73
2022-09-16T01:15:09.010Z,2.03
2022-09-16T01:17:55.312Z,1.70
2022-09-16T01:21:00.885Z,1.43
2022-09-16T01:23:58.129Z,1.70
2022-09-16T01:26:48.981Z,1.50
2022-09-16T01:29:33.937Z,1.50
2022-09-16T01:32:07.689Z,1.73
2022-09-16T01:34:47.269Z,1.50
2022-09-16T01:37:25.662Z,1.50
2022-09-16T01:40:03.552Z,1.37
2022-09-16T01:42:39.568Z,1.53
2022-09-16T01:45:16.438Z,1.50
2022-09-16T01:47:55.625Z,1.97
2022-09-16T01:50:27.621Z,1.50
2022-09-16T01:53:02.147Z,1.37
2022-09-16T01:55:33.821Z,1.60
2022-09-16T01:58:06.102Z,1.50
2022-09-16T02:00:34.576Z,1.30
2022-09-16T02:03:08.677Z,1.80
2022-09-16T02:05:41.848Z,1.60
2022-09-16T02:08:13.422Z,1.50
2022-09-16T02:10:44.519Z,1.20
2022-09-16T02:13:18.969Z,1.93
2022-09-16T02:15:50.996Z,1.23
2022-09-16T02:18:25.083Z,1.57
2022-09-16T02:20:55.350Z,1.97
2022-09-16T02:23:26.560Z,1.60
2022-09-16T02:25:56.486Z,2.27
2022-09-16T02:28:27.908Z,1.47
2022-09-16T02:30:59.395Z,1.60
2022-09-16T02:33:32.798Z,1.80
2022-09-16T02:36:03.181Z,1.87
2022-09-16T02:38:35.670Z,1.27
2022-09-16T02:41:03.632Z,2.33
2022-09-16T02:43:31.980Z,1.60
2022-09-16T02:46:10.247Z,1.40
2022-09-16T02:48:50.474Z,1.60
2022-09-16T02:51:30.606Z,1.80
2022-09-16T02:54:02.997Z,1.67
2022-09-16T02:56:33.911Z,2.37
2022-09-16T02:59:02.165Z,1.43
2022-09-16T03:01:33.811Z,1.40
2022-09-16T03:04:04.114Z,1.70
2022-09-16T03:06:36.000Z,1.33
2022-09-16T03:09:07.305Z,1.70
2022-09-16T03:11:50.250Z,1.70
2022-09-16T03:14:53.000Z,1.90
2022-09-16T03:17:34.567Z,1.60
2022-09-16T03:20:10.966Z,1.57
2022-09-16T03:22:48.562Z,2.63
2022-09-16T03:25:30.999Z,1.80
2022-09-16T03:28:06.825Z,1.90
2022-09-16T03:30:42.530Z,1.37
2022-09-16T03:33:16.766Z,1.40
2022-09-16T03:35:50.294Z,1.40
2022-09-16T03:38:19.570Z,1.97
2022-09-16T03:40:49.224Z,1.87
2022-09-16T03:43:18.075Z,1.60
2022-09-16T03:45:45.938Z,1.60
2022-09-16T03:48:14.592Z,1.77
2022-09-16T03:50:42.203Z,1.60
2022-09-16T03:53:11.297Z,2.00
2022-09-16T03:55:38.939Z,1.90
2022-09-16T03:58:06.570Z,2.23
2022-09-16T04:00:34.593Z,1.77
2022-09-16T04:03:03.055Z,1.90
2022-09-16T04:05:30.966Z,1.60
2022-09-16T04:07:58.809Z,1.80
2022-09-16T04:10:27.817Z,1.80
2022-09-16T04:12:58.594Z,1.77
2022-09-16T04:15:26.223Z,1.53
2022-09-16T04:17:55.097Z,1.63
2022-09-16T04:20:22.722Z,1.40
2022-09-16T04:22:50.271Z,1.60
2022-09-16T04:25:17.871Z,1.70
2022-09-16T04:27:46.876Z,1.40
2022-09-16T04:30:14.805Z,1.67
2022-09-16T04:32:42.365Z,2.33
2022-09-16T04:35:10.617Z,1.40
2022-09-16T04:37:38.215Z,1.53
2022-09-16T04:40:06.713Z,1.83
2022-09-16T04:42:34.393Z,1.70
2022-09-16T04:45:03.447Z,1.73
2022-09-16T04:47:31.141Z,1.70
2022-09-16T04:49:59.430Z,2.23
2022-09-16T04:52:27.075Z,1.70
2022-09-16T04:54:55.891Z,1.60
2022-09-16T04:57:25.854Z,1.50
2022-09-16T04:59:53.416Z,1.63
2022-09-16T05:02:22.360Z,1.70
2022-09-16T05:04:49.990Z,1.87
2022-09-16T05:07:17.647Z,1.70
2022-09-16T05:09:45.207Z,1.83
2022-09-16T05:12:12.835Z,1.63
2022-09-16T05:14:40.688Z,1.70
2022-09-16T05:17:08.364Z,1.43
2022-09-16T05:19:37.313Z,1.40
2022-09-16T05:22:07.035Z,1.40
2022-09-16T05:24:36.385Z,1.73
2022-09-16T05:27:04.471Z,1.80
2022-09-16T05:29:32.099Z,1.40
2022-09-16T05:31:59.691Z,1.93
2022-09-16T05:34:28.603Z,2.10
2022-09-16T05:36:57.632Z,2.00
2022-09-16T05:39:26.207Z,1.80
2022-09-16T05:41:56.178Z,1.50
2022-09-16T05:44:23.853Z,1.80
2022-09-16T05:46:51.630Z,2.13
2022-09-16T05:49:20.860Z,1.60
2022-09-16T05:51:49.749Z,2.03
2022-09-16T05:54:19.756Z,1.70
2022-09-16T05:56:48.330Z,1.40
2022-09-16T05:59:17.451Z,1.20
2022-09-16T06:01:45.930Z,2.00
2022-09-16T06:04:15.884Z,1.60
2022-09-16T06:06:44.875Z,1.47
2022-09-16T06:09:15.799Z,1.53
2022-09-16T06:11:46.807Z,1.50
2022-09-16T06:14:15.744Z,2.43
2022-09-16T06:16:43.887Z,1.67
2022-09-16T06:19:13.632Z,1.50
2022-09-16T06:21:41.811Z,1.57
2022-09-16T06:24:10.056Z,1.33
2022-09-16T06:26:39.770Z,1.50
2022-09-16T06:29:09.794Z,1.43
2022-09-16T06:31:38.656Z,1.67
2022-09-16T06:34:07.709Z,1.53
2022-09-16T06:36:38.518Z,1.60
2022-09-16T06:39:08.267Z,1.10
2022-09-16T06:41:35.961Z,1.23
2022-09-16T06:44:03.605Z,1.70
2022-09-16T06:46:32.521Z,1.50
2022-09-16T06:49:05.047Z,1.53
2022-09-16T06:51:34.351Z,1.47
2022-09-16T06:54:03.521Z,1.43
2022-09-16T06:56:31.300Z,1.97
2022-09-16T06:58:58.899Z,1.63
2022-09-16T07:01:28.585Z,1.90
2022-09-16T07:03:59.306Z,2.23
2022-09-16T07:06:52.249Z,1.70
2022-09-16T07:09:18.434Z,0.83
2022-09-16T07:11:46.093Z,1.70
2022-09-16T07:14:13.659Z,1.73
2022-09-16T07:16:41.327Z,1.50
2022-09-16T07:19:10.482Z,1.43
2022-09-16T07:21:38.129Z,1.23
2022-09-16T07:24:06.180Z,1.20
2022-09-16T07:26:35.711Z,1.50
2022-09-16T07:29:05.318Z,1.30
2022-09-16T07:31:36.350Z,1.07
2022-09-16T07:34:05.529Z,1.27
2022-09-16T07:36:36.365Z,1.20
2022-09-16T07:39:04.846Z,1.40
2022-09-16T07:41:35.631Z,1.33
2022-09-16T07:44:05.070Z,1.20
2022-09-16T07:46:34.726Z,1.27
2022-09-16T07:49:03.944Z,1.37
2022-09-16T07:51:31.908Z,1.33
2022-09-16T07:54:03.744Z,1.47
2022-09-16T07:56:34.352Z,1.17
2022-09-16T07:59:03.099Z,1.23
2022-09-16T08:01:31.702Z,1.30
2022-09-16T08:04:01.326Z,1.40
2022-09-16T08:06:30.152Z,1.23
2022-09-16T08:09:10.159Z,1.37
2022-09-16T08:11:50.377Z,1.30
2022-09-16T08:14:17.972Z,1.40
2022-09-16T08:16:46.591Z,1.50
2022-09-16T08:19:14.378Z,1.47
2022-09-16T08:21:42.008Z,1.13
2022-09-16T08:24:10.902Z,1.50
2022-09-16T08:26:38.587Z,1.10
2022-09-16T08:29:09.397Z,1.00
2022-09-16T08:31:38.654Z,1.57
2022-09-16T08:34:07.285Z,1.33
2022-09-16T08:36:35.151Z,1.00
2022-09-16T08:39:03.142Z,0.87
2022-09-16T08:41:51.398Z,1.10
2022-09-16T08:44:34.497Z,1.40
2022-09-16T08:47:06.279Z,0.80
2022-09-16T08:49:38.262Z,1.07
2022-09-16T08:52:14.262Z,1.03
2022-09-16T08:54:45.126Z,1.20
2022-09-16T08:57:16.481Z,1.07
2022-09-16T08:59:49.891Z,1.30
2022-09-16T09:02:29.822Z,0.90
2022-09-16T09:04:57.963Z,1.10
2022-09-16T09:07:43.101Z,1.40
2022-09-16T09:10:16.851Z,1.10
2022-09-16T09:12:49.742Z,1.10
2022-09-16T09:15:33.428Z,0.90
2022-09-16T09:18:16.139Z,0.83
2022-09-16T09:20:50.581Z,0.67
2022-09-16T09:23:34.209Z,0.83
2022-09-16T09:26:08.596Z,0.80
2022-09-16T09:29:01.287Z,1.00
2022-09-16T09:31:39.372Z,0.97
2022-09-16T09:34:17.244Z,1.03
2022-09-16T09:37:00.338Z,0.90
2022-09-16T09:39:43.125Z,1.00
2022-09-16T09:42:16.219Z,1.00
2022-09-16T09:44:52.129Z,0.80
2022-09-16T09:47:26.185Z,0.87
2022-09-16T09:49:57.686Z,1.10
2022-09-16T09:52:32.391Z,1.20
2022-09-16T09:55:16.291Z,0.80
2022-09-16T09:57:56.938Z,0.83
2022-09-16T10:00:24.552Z,1.47
2022-09-16T10:02:53.871Z,0.80
2022-09-16T10:05:25.962Z,0.73
2022-09-16T10:07:56.665Z,1.07
2022-09-16T10:10:25.854Z,0.80
2022-09-16T10:12:54.562Z,0.80
2022-09-16T10:15:24.447Z,0.97
2022-09-16T10:17:54.622Z,0.80
2022-09-16T10:20:28.199Z,0.90
2022-09-16T10:23:01.031Z,0.80
2022-09-16T10:25:30.683Z,1.03
2022-09-16T10:28:01.269Z,0.83
2022-09-16T10:30:32.842Z,0.70
2022-09-16T10:33:04.830Z,1.00
2022-09-16T10:35:34.491Z,0.90
2022-09-16T10:38:06.398Z,1.10
2022-09-16T10:40:34.942Z,1.50
2022-09-16T10:43:05.430Z,0.80
2022-09-16T10:45:36.655Z,1.10
2022-09-16T10:48:13.296Z,0.93
2022-09-16T10:50:40.930Z,1.10
2022-09-16T10:53:23.947Z,1.03
2022-09-16T10:55:59.013Z,1.10
2022-09-16T10:58:26.875Z,0.90
2022-09-16T11:01:20.138Z,0.93
2022-09-16T11:04:21.856Z,1.07
2022-09-16T11:07:02.591Z,0.70
2022-09-16T11:09:36.656Z,0.90
2022-09-16T11:12:34.814Z,0.83
2022-09-16T11:15:13.926Z,0.70
2022-09-16T11:17:58.620Z,0.70
2022-09-16T11:20:57.548Z,0.70
2022-09-16T11:23:41.248Z,1.00
2022-09-16T11:26:18.452Z,0.80
2022-09-16T11:29:09.441Z,0.53
2022-09-16T11:31:44.395Z,0.60
2022-09-16T11:34:24.742Z,0.57
2022-09-16T11:37:07.308Z,0.80
2022-09-16T11:40:01.312Z,0.90
2022-09-16T11:42:34.307Z,0.80
2022-09-16T11:45:12.777Z,1.00
2022-09-16T11:47:54.519Z,0.80
2022-09-16T11:50:42.200Z,1.00
2022-09-16T11:53:34.581Z,0.60
2022-09-16T11:56:08.780Z,0.90
2022-09-16T11:58:40.078Z,0.57
2022-09-16T12:03:54.425Z,1.03
2022-09-16T12:06:26.622Z,1.00
2022-09-16T12:09:01.661Z,0.87
2022-09-16T12:11:33.901Z,1.10
2022-09-16T12:14:09.379Z,0.77
2022-09-16T12:16:42.924Z,1.00
2022-09-16T12:19:17.862Z,0.93
2022-09-16T12:21:57.500Z,0.70
2022-09-16T12:24:33.479Z,0.50
2022-09-16T12:27:07.058Z,0.90
2022-09-16T12:29:41.795Z,0.77
2022-09-16T12:32:14.081Z,0.80
2022-09-16T12:34:45.606Z,0.90
2022-09-16T12:37:25.579Z,0.90
2022-09-16T12:39:54.596Z,0.80
2022-09-16T12:42:51.520Z,0.73
2022-09-16T12:46:06.540Z,0.90
2022-09-16T12:48:58.979Z,0.93
2022-09-16T12:51:54.518Z,0.70
2022-09-16T12:54:51.227Z,0.60
2022-09-16T12:57:42.584Z,0.60
2022-09-16T13:00:16.610Z,0.70
2022-09-16T13:02:48.763Z,0.50
2022-09-16T13:05:26.242Z,0.47
2022-09-16T13:07:59.452Z,0.53
2022-09-16T13:10:53.959Z,0.60
2022-09-16T13:13:30.979Z,0.60
2022-09-16T13:16:00.969Z,0.70
2022-09-16T13:18:41.148Z,0.87
2022-09-16T13:21:21.155Z,0.80
2022-09-16T13:23:54.439Z,1.10
2022-09-16T13:26:22.276Z,0.90
2022-09-16T13:28:51.267Z,0.80
2022-09-16T13:31:30.950Z,0.93
2022-09-16T13:34:15.102Z,1.20
2022-09-16T13:36:42.819Z,0.80
2022-09-16T13:39:13.617Z,1.27
2022-09-16T13:41:44.325Z,1.00
2022-09-16T13:44:31.511Z,0.70
2022-09-16T13:47:16.952Z,0.70
2022-09-16T13:49:49.061Z,0.40
2022-09-16T13:52:21.071Z,0.70
2022-09-16T13:55:09.547Z,0.90
2022-09-16T13:57:55.465Z,0.40
2022-09-16T14:00:32.325Z,0.53
2022-09-16T14:03:26.683Z,0.53
2022-09-16T14:06:14.521Z,0.60
2022-09-16T14:08:51.704Z,0.20
2022-09-16T14:11:29.768Z,0.60
2022-09-16T14:14:05.919Z,0.30
2022-09-16T14:16:40.221Z,0.23
2022-09-16T14:19:14.015Z,0.30
2022-09-16T14:21:41.637Z,0.30
2022-09-16T14:24:17.216Z,0.50
2022-09-16T14:26:54.767Z,0.40
2022-09-16T14:29:23.789Z,0.30
2022-09-16T14:31:55.482Z,0.33
2022-09-16T14:34:28.516Z,0.40
2022-09-16T14:36:56.314Z,0.50
2022-09-16T14:39:26.414Z,0.30
2022-09-16T14:41:58.338Z,0.50
2022-09-16T14:44:31.908Z,0.50
2022-09-16T14:47:09.146Z,4.20
2022-09-16T14:49:40.972Z,2.90
2022-09-16T14:52:20.611Z,0.60
2022-09-16T14:54:48.335Z,0.50
2022-09-16T14:57:20.556Z,0.60
2022-09-16T14:59:48.464Z,0.43
2022-09-16T15:02:22.805Z,0.40
2022-09-16T15:04:53.772Z,0.57
2022-09-16T15:07:25.026Z,0.37
2022-09-16T15:09:58.491Z,0.30
2022-09-16T15:12:29.209Z,0.30
2022-09-16T15:14:57.669Z,0.73
2022-09-16T15:17:29.158Z,0.30
2022-09-16T15:19:58.872Z,0.30
2022-09-16T15:22:27.895Z,0.20
2022-09-16T15:24:58.491Z,0.50
2022-09-16T15:27:28.199Z,0.33
2022-09-16T15:29:59.555Z,0.40
2022-09-16T15:32:31.765Z,0.30
2022-09-16T15:35:25.949Z,0.30
2022-09-16T15:37:54.852Z,0.20
2022-09-16T15:40:32.587Z,0.20
2022-09-16T15:43:06.877Z,0.50
2022-09-16T15:45:34.739Z,0.43
2022-09-16T15:48:07.393Z,0.30
2022-09-16T15:50:41.990Z,0.50
2022-09-16T15:53:13.958Z,0.40
2022-09-16T15:55:44.195Z,0.20
2022-09-16T15:58:17.635Z,0.30
2022-09-16T16:01:04.344Z,0.30
2022-09-16T16:03:47.253Z,0.40
2022-09-16T16:06:15.096Z,0.57
2022-09-16T16:08:48.355Z,0.77
2022-09-16T16:11:18.096Z,0.63
2022-09-16T16:13:46.681Z,0.30
2022-09-16T16:16:16.241Z,0.47
2022-09-16T16:18:47.366Z,0.40
2022-09-16T16:21:17.164Z,0.30
2022-09-16T16:23:45.349Z,0.50
2022-09-16T16:26:13.006Z,0.40
2022-09-16T16:28:40.586Z,0.47
2022-09-16T16:31:13.521Z,0.30
2022-09-16T16:33:47.506Z,0.20
2022-09-16T16:36:16.779Z,0.40
2022-09-16T16:38:46.184Z,0.30
2022-09-16T16:41:20.658Z,0.20
2022-09-16T16:43:48.454Z,0.43
2022-09-16T16:46:17.436Z,0.40
2022-09-16T16:48:47.105Z,0.33
2022-09-16T16:51:14.824Z,0.30
2022-09-16T16:53:42.527Z,0.60
2022-09-16T16:56:15.077Z,0.40
2022-09-16T16:58:42.992Z,0.50
2022-09-16T17:01:12.785Z,0.40
2022-09-16T17:03:40.975Z,0.30
2022-09-16T17:06:10.357Z,0.40
2022-09-16T17:08:38.359Z,0.30
2022-09-16T17:11:07.950Z,0.53
2022-09-16T17:13:35.615Z,0.30
2022-09-16T17:16:04.091Z,0.30
2022-09-16T17:18:31.832Z,0.60
2022-09-16T17:21:02.878Z,0.63
2022-09-16T17:23:32.182Z,1.13
2022-09-16T17:25:59.777Z,0.60
2022-09-16T17:28:27.444Z,0.70
2022-09-16T17:30:55.324Z,0.80
2022-09-16T17:33:23.379Z,0.47
2022-09-16T17:36:01.195Z,0.73
2022-09-16T17:38:29.062Z,0.90
2022-09-16T17:41:03.854Z,0.83
2022-09-16T17:43:32.869Z,0.90
2022-09-16T17:46:01.371Z,0.70
2022-09-16T17:48:29.378Z,0.77
2022-09-16T17:50:57.962Z,0.77
2022-09-16T17:53:26.675Z,0.60
2022-09-16T17:56:02.088Z,0.60
2022-09-16T17:58:31.400Z,0.60
2022-09-16T18:01:08.494Z,0.97
2022-09-16T18:03:36.822Z,0.50
2022-09-16T18:06:07.225Z,0.80
2022-09-16T18:08:34.839Z,0.63
2022-09-16T18:11:02.622Z,0.90
2022-09-16T18:13:31.957Z,0.77
2022-09-16T18:16:03.894Z,0.70
2022-09-16T18:18:32.727Z,0.67
2022-09-16T18:21:00.545Z,0.70
2022-09-16T18:23:30.568Z,0.70
2022-09-16T18:25:58.591Z,0.80
2022-09-16T18:28:26.236Z,0.60
2022-09-16T18:31:06.150Z,0.67
2022-09-16T18:33:36.628Z,0.60
2022-09-16T18:36:07.326Z,0.70
2022-09-16T18:38:35.967Z,0.67
2022-09-16T18:41:08.483Z,0.80
2022-09-16T18:43:36.517Z,1.00
2022-09-16T18:46:10.931Z,1.20
2022-09-16T18:48:39.139Z,1.33
2022-09-16T18:51:08.129Z,0.97
2022-09-16T18:53:35.766Z,0.90
2022-09-16T18:56:03.736Z,0.73
2022-09-16T18:58:31.833Z,0.70
2022-09-16T19:01:09.475Z,1.00
2022-09-16T19:03:38.471Z,0.67
2022-09-16T19:06:06.428Z,0.77
2022-09-16T19:08:35.636Z,0.40
2022-09-16T19:11:04.213Z,0.60
2022-09-16T19:13:33.702Z,0.50
2022-09-16T19:16:01.407Z,0.50
2022-09-16T19:18:29.440Z,0.70
2022-09-16T19:20:58.720Z,0.80
2022-09-16T19:23:26.369Z,0.67
2022-09-16T19:25:54.491Z,1.03
2022-09-16T19:28:22.050Z,0.50
2022-09-16T19:30:49.902Z,0.60
2022-09-16T19:33:17.919Z,0.70
2022-09-16T19:35:45.519Z,0.30
2022-09-16T19:38:14.549Z,0.50
2022-09-16T19:40:42.221Z,0.50
2022-09-16T19:43:09.813Z,0.60
2022-09-16T19:45:37.485Z,0.47
2022-09-16T19:48:05.973Z,0.30
2022-09-16T19:50:33.767Z,0.50
2022-09-16T19:53:01.422Z,0.30
2022-09-16T19:55:30.379Z,0.43
2022-09-16T19:57:58.039Z,0.47
2022-09-16T20:00:36.740Z,0.27
2022-09-16T20:03:13.656Z,0.60
2022-09-16T20:05:41.272Z,0.30
2022-09-16T20:08:08.912Z,0.40
2022-09-16T20:10:37.978Z,0.47
2022-09-16T20:13:05.620Z,0.70
2022-09-16T20:15:33.680Z,0.50
2022-09-16T20:18:01.259Z,0.33
2022-09-16T20:20:29.983Z,0.30
2022-09-16T20:22:57.579Z,0.40
2022-09-16T20:25:25.280Z,0.47
2022-09-16T20:27:54.400Z,0.50
2022-09-16T20:30:22.023Z,0.70
2022-09-16T20:32:49.994Z,0.50
2022-09-16T20:35:17.645Z,0.40
2022-09-16T20:37:45.313Z,0.47
2022-09-16T20:40:12.985Z,0.30
2022-09-16T20:42:40.710Z,0.30
2022-09-16T20:45:11.051Z,0.60
2022-09-16T20:47:38.638Z,0.50
2022-09-16T20:50:09.227Z,0.40
2022-09-16T20:52:36.819Z,0.60
2022-09-16T20:55:06.324Z,0.80
2022-09-16T20:57:34.012Z,0.73
2022-09-16T21:00:01.684Z,0.87
2022-09-16T21:02:30.650Z,0.67
2022-09-16T21:05:03.599Z,0.90
2022-09-16T21:07:31.269Z,0.90
2022-09-16T21:09:59.080Z,1.23
2022-09-16T21:12:26.720Z,0.57
2022-09-16T21:14:54.291Z,0.77
2022-09-16T21:17:22.621Z,1.60
2022-09-16T21:19:51.652Z,0.60
2022-09-16T21:22:20.210Z,0.77
2022-09-16T21:24:47.973Z,4.30
2022-09-16T21:27:15.598Z,2.50
2022-09-16T21:29:43.264Z,1.70
2022-09-16T21:32:10.922Z,0.60
2022-09-16T21:34:38.530Z,0.90
2022-09-16T21:37:07.460Z,0.47
2022-09-16T21:39:35.104Z,0.40
2022-09-16T21:42:02.700Z,0.63
2022-09-16T21:44:30.385Z,0.30
2022-09-16T21:46:57.931Z,0.50
2022-09-16T21:49:26.081Z,0.60
2022-09-16T21:51:55.136Z,1.00
2022-09-16T21:54:25.189Z,0.80
2022-09-16T21:56:53.111Z,0.60
2022-09-16T21:59:21.189Z,0.40
2022-09-16T22:01:50.189Z,0.50
2022-09-16T22:04:20.506Z,0.53
2022-09-16T22:06:49.669Z,0.40
2022-09-16T22:09:17.539Z,0.60
2022-09-16T22:11:46.998Z,0.40
2022-09-16T22:14:14.634Z,0.40
2022-09-16T22:16:42.439Z,0.77
2022-09-16T22:19:12.167Z,0.70
2022-09-16T22:21:42.217Z,0.67
2022-09-16T22:24:10.372Z,0.50
2022-09-16T22:26:38.493Z,0.33
2022-09-16T22:29:09.298Z,0.60
2022-09-16T22:31:38.407Z,0.40
2022-09-16T22:34:06.527Z,0.60
2022-09-16T22:36:36.441Z,0.40
2022-09-16T22:39:06.116Z,0.40
2022-09-16T22:41:34.679Z,0.57
2022-09-16T22:44:02.946Z,0.50
2022-09-16T22:46:34.488Z,0.50
2022-09-16T22:49:02.674Z,0.53
2022-09-16T22:51:30.412Z,0.80
2022-09-16T22:53:58.039Z,0.63
2022-09-16T22:56:29.279Z,0.50
2022-09-16T22:58:57.957Z,0.60
2022-09-16T23:01:27.668Z,0.30
2022-09-16T23:03:58.438Z,0.30
2022-09-16T23:06:27.971Z,0.27
2022-09-16T23:08:55.881Z,0.43
2022-09-16T23:11:25.452Z,0.50
2022-09-16T23:13:54.100Z,0.53
2022-09-16T23:16:23.690Z,0.40
2022-09-16T23:18:51.833Z,0.63
2022-09-16T23:21:22.103Z,0.50
2022-09-16T23:23:52.077Z,0.30
2022-09-16T23:26:21.780Z,0.40
2022-09-16T23:28:52.522Z,0.40
2022-09-16T23:31:22.820Z,0.50
2022-09-16T23:33:50.620Z,0.50
2022-09-16T23:36:20.410Z,0.30
2022-09-16T23:38:48.548Z,0.60
2022-09-16T23:41:19.725Z,0.50
2022-09-16T23:43:48.410Z,0.40
2022-09-16T23:46:20.335Z,1.10
2022-09-16T23:48:51.511Z,0.60
2022-09-16T23:51:27.234Z,0.50
2022-09-16T23:53:56.721Z,0.83
2022-09-16T23:56:24.308Z,0.33
2022-09-16T23:58:52.810Z,0.50
